sensor_id;sensor_type;location;lat;lon;timestamp;P1;durP1;ratioP1;P2;durP2;ratioP2
17504;SDS011;8870;50.950;11.762;2023-09-08T00:02:34;2.08;;;1.30;;
17504;SDS011;8870;50.950;11.762;2023-09-08T00:13:21;2.65;;;1.50;;
17504;SDS011;8870;50.950;11.762;2023-09-08T00:18:52;1.42;;;1.30;;
17504;SDS011;8870;50.950;11.762;2023-09-08T00:24:27;2.45;;;1.50;;
17504;SDS011;8870;50.950;11.762;2023-09-08T00:29:45;1.55;;;1.30;;
17504;SDS011;8870;50.950;11.762;2023-09-08T00:35:16;1.63;;;1.20;;
17504;SDS011;8870;50.950;11.762;2023-09-08T00:40:37;2.25;;;1.30;;
17504;SDS011;8870;50.950;11.762;2023-09-08T00:46:08;2.05;;;1.42;;
17504;SDS011;8870;50.950;11.762;2023-09-08T00:51:27;1.98;;;1.40;;
17504;SDS011;8870;50.950;11.762;2023-09-08T00:57:04;1.40;;;1.30;;
17504;SDS011;8870;50.950;11.762;2023-09-08T01:02:23;2.67;;;1.48;;
17504;SDS011;8870;50.950;11.762;2023-09-08T01:07:55;2.08;;;1.60;;
17504;SDS011;8870;50.950;11.762;2023-09-08T01:13:17;2.75;;;1.58;;
17504;SDS011;8870;50.950;11.762;2023-09-08T01:18:48;1.80;;;1.50;;
17504;SDS011;8870;50.950;11.762;2023-09-08T01:24:27;2.58;;;1.63;;
17504;SDS011;8870;50.950;11.762;2023-09-08T01:30:09;2.33;;;1.70;;
17504;SDS011;8870;50.950;11.762;2023-09-08T01:35:40;4.07;;;1.80;;
17504;SDS011;8870;50.950;11.762;2023-09-08T01:41:00;4.40;;;1.50;;
17504;SDS011;8870;50.950;11.762;2023-09-08T01:46:35;1.70;;;1.30;;
17504;SDS011;8870;50.950;11.762;2023-09-08T01:51:54;2.58;;;1.40;;
17504;SDS011;8870;50.950;11.762;2023-09-08T02:03:02;3.92;;;1.50;;
17504;SDS011;8870;50.950;11.762;2023-09-08T02:08:34;1.75;;;1.48;;
17504;SDS011;8870;50.950;11.762;2023-09-08T02:13:53;2.70;;;1.60;;
17504;SDS011;8870;50.950;11.762;2023-09-08T02:19:27;3.60;;;1.50;;
17504;SDS011;8870;50.950;11.762;2023-09-08T02:24:59;1.83;;;1.40;;
17504;SDS011;8870;50.950;11.762;2023-09-08T02:30:18;1.85;;;1.40;;
17504;SDS011;8870;50.950;11.762;2023-09-08T02:35:53;1.52;;;1.35;;
17504;SDS011;8870;50.950;11.762;2023-09-08T02:41:14;2.17;;;1.30;;
17504;SDS011;8870;50.950;11.762;2023-09-08T02:46:45;1.95;;;1.40;;
17504;SDS011;8870;50.950;11.762;2023-09-08T02:52:06;1.88;;;1.33;;
17504;SDS011;8870;50.950;11.762;2023-09-08T02:57:42;2.17;;;1.50;;
17504;SDS011;8870;50.950;11.762;2023-09-08T03:03:01;1.75;;;1.38;;
17504;SDS011;8870;50.950;11.762;2023-09-08T03:08:36;2.88;;;1.48;;
17504;SDS011;8870;50.950;11.762;2023-09-08T03:13:55;2.22;;;1.30;;
17504;SDS011;8870;50.950;11.762;2023-09-08T03:19:26;1.50;;;1.40;;
17504;SDS011;8870;50.950;11.762;2023-09-08T03:25:00;2.08;;;1.33;;
17504;SDS011;8870;50.950;11.762;2023-09-08T03:30:18;2.63;;;1.23;;
17504;SDS011;8870;50.950;11.762;2023-09-08T03:35:49;2.20;;;1.48;;
17504;SDS011;8870;50.950;11.762;2023-09-08T03:41:11;1.58;;;1.40;;
17504;SDS011;8870;50.950;11.762;2023-09-08T03:46:42;2.03;;;1.35;;
17504;SDS011;8870;50.950;11.762;2023-09-08T03:52:01;2.13;;;1.65;;
17504;SDS011;8870;50.950;11.762;2023-09-08T03:57:35;2.00;;;1.40;;
17504;SDS011;8870;50.950;11.762;2023-09-08T04:02:53;1.70;;;1.60;;
17504;SDS011;8870;50.950;11.762;2023-09-08T04:08:25;2.35;;;1.67;;
17504;SDS011;8870;50.950;11.762;2023-09-08T04:13:47;2.60;;;1.58;;
17504;SDS011;8870;50.950;11.762;2023-09-08T04:19:18;1.55;;;1.30;;
17504;SDS011;8870;50.950;11.762;2023-09-08T04:24:49;3.55;;;1.50;;
17504;SDS011;8870;50.950;11.762;2023-09-08T04:30:12;2.80;;;1.50;;
17504;SDS011;8870;50.950;11.762;2023-09-08T04:35:43;2.35;;;1.38;;
17504;SDS011;8870;50.950;11.762;2023-09-08T04:41:02;1.50;;;1.40;;
17504;SDS011;8870;50.950;11.762;2023-09-08T04:46:36;3.13;;;1.45;;
17504;SDS011;8870;50.950;11.762;2023-09-08T04:51:55;1.50;;;1.30;;
17504;SDS011;8870;50.950;11.762;2023-09-08T04:57:27;4.28;;;1.40;;
17504;SDS011;8870;50.950;11.762;2023-09-08T05:02:48;1.90;;;1.27;;
17504;SDS011;8870;50.950;11.762;2023-09-08T05:08:19;2.83;;;1.50;;
17504;SDS011;8870;50.950;11.762;2023-09-08T05:13:38;1.40;;;1.30;;
17504;SDS011;8870;50.950;11.762;2023-09-08T05:19:13;2.05;;;1.45;;
17504;SDS011;8870;50.950;11.762;2023-09-08T05:24:46;1.80;;;1.48;;
17504;SDS011;8870;50.950;11.762;2023-09-08T05:30:06;2.17;;;1.33;;
17504;SDS011;8870;50.950;11.762;2023-09-08T05:35:28;1.80;;;1.40;;
17504;SDS011;8870;50.950;11.762;2023-09-08T05:40:59;4.25;;;1.42;;
17504;SDS011;8870;50.950;11.762;2023-09-08T05:46:18;3.53;;;1.45;;
17504;SDS011;8870;50.950;11.762;2023-09-08T05:51:51;1.42;;;1.33;;
17504;SDS011;8870;50.950;11.762;2023-09-08T05:57:10;6.05;;;1.75;;
17504;SDS011;8870;50.950;11.762;2023-09-08T06:02:41;3.00;;;1.50;;
17504;SDS011;8870;50.950;11.762;2023-09-08T06:08:03;2.58;;;1.40;;
17504;SDS011;8870;50.950;11.762;2023-09-08T06:13:34;3.10;;;1.40;;
17504;SDS011;8870;50.950;11.762;2023-09-08T06:18:59;1.90;;;1.23;;
17504;SDS011;8870;50.950;11.762;2023-09-08T06:29:52;27.13;;;2.60;;
17504;SDS011;8870;50.950;11.762;2023-09-08T06:35:25;25.17;;;2.55;;
17504;SDS011;8870;50.950;11.762;2023-09-08T06:40:46;7.97;;;1.73;;
17504;SDS011;8870;50.950;11.762;2023-09-08T06:46:17;1.67;;;1.58;;
17504;SDS011;8870;50.950;11.762;2023-09-08T06:51:36;4.50;;;1.58;;
17504;SDS011;8870;50.950;11.762;2023-09-08T06:57:12;23.98;;;2.30;;
17504;SDS011;8870;50.950;11.762;2023-09-08T07:02:31;4.15;;;1.50;;
17504;SDS011;8870;50.950;11.762;2023-09-08T07:08:01;12.57;;;1.70;;
17504;SDS011;8870;50.950;11.762;2023-09-08T07:13:24;4.00;;;1.50;;
17504;SDS011;8870;50.950;11.762;2023-09-08T07:18:56;6.15;;;1.50;;
17504;SDS011;8870;50.950;11.762;2023-09-08T07:24:16;12.85;;;1.70;;
17504;SDS011;8870;50.950;11.762;2023-09-08T07:29:51;64.47;;;3.00;;
17504;SDS011;8870;50.950;11.762;2023-09-08T07:35:10;41.40;;;2.60;;
17504;SDS011;8870;50.950;11.762;2023-09-08T07:40:41;12.27;;;1.52;;
17504;SDS011;8870;50.950;11.762;2023-09-08T07:46:02;2.30;;;1.30;;
17504;SDS011;8870;50.950;11.762;2023-09-08T07:51:33;2.97;;;1.35;;
17504;SDS011;8870;50.950;11.762;2023-09-08T07:56:52;3.35;;;1.30;;
17504;SDS011;8870;50.950;11.762;2023-09-08T08:02:26;2.83;;;1.20;;
17504;SDS011;8870;50.950;11.762;2023-09-08T08:07:45;4.07;;;1.48;;
17504;SDS011;8870;50.950;11.762;2023-09-08T08:13:15;2.67;;;1.30;;
17504;SDS011;8870;50.950;11.762;2023-09-08T08:18:43;1.30;;;1.20;;
17504;SDS011;8870;50.950;11.762;2023-09-08T08:24:14;1.52;;;1.10;;
17504;SDS011;8870;50.950;11.762;2023-09-08T08:29:34;1.30;;;1.20;;
17504;SDS011;8870;50.950;11.762;2023-09-08T08:35:07;2.67;;;1.40;;
17504;SDS011;8870;50.950;11.762;2023-09-08T08:40:26;1.52;;;1.23;;
17504;SDS011;8870;50.950;11.762;2023-09-08T08:45:57;3.53;;;1.10;;
17504;SDS011;8870;50.950;11.762;2023-09-08T08:51:21;1.95;;;1.10;;
17504;SDS011;8870;50.950;11.762;2023-09-08T08:56:54;3.17;;;1.20;;
17504;SDS011;8870;50.950;11.762;2023-09-08T09:02:14;1.55;;;1.08;;
17504;SDS011;8870;50.950;11.762;2023-09-08T09:07:48;2.20;;;1.27;;
17504;SDS011;8870;50.950;11.762;2023-09-08T09:13:08;2.88;;;1.27;;
17504;SDS011;8870;50.950;11.762;2023-09-08T09:24:34;1.92;;;1.17;;
17504;SDS011;8870;50.950;11.762;2023-09-08T09:35:41;2.65;;;1.25;;
17504;SDS011;8870;50.950;11.762;2023-09-08T09:41:03;2.67;;;1.10;;
17504;SDS011;8870;50.950;11.762;2023-09-08T09:46:34;1.63;;;1.10;;
17504;SDS011;8870;50.950;11.762;2023-09-08T09:52:00;1.70;;;1.20;;
17504;SDS011;8870;50.950;11.762;2023-09-08T10:02:52;1.35;;;1.00;;
17504;SDS011;8870;50.950;11.762;2023-09-08T10:08:25;1.13;;;1.02;;
17504;SDS011;8870;50.950;11.762;2023-09-08T10:13:46;2.30;;;1.10;;
17504;SDS011;8870;50.950;11.762;2023-09-08T10:24:54;3.03;;;1.10;;
17504;SDS011;8870;50.950;11.762;2023-09-08T10:30:29;2.47;;;1.30;;
17504;SDS011;8870;50.950;11.762;2023-09-08T10:35:49;1.75;;;1.13;;
17504;SDS011;8870;50.950;11.762;2023-09-08T10:41:27;1.40;;;1.17;;
17504;SDS011;8870;50.950;11.762;2023-09-08T10:46:51;1.90;;;1.20;;
17504;SDS011;8870;50.950;11.762;2023-09-08T10:52:24;1.10;;;1.00;;
17504;SDS011;8870;50.950;11.762;2023-09-08T10:57:44;1.40;;;1.25;;
17504;SDS011;8870;50.950;11.762;2023-09-08T11:03:25;1.95;;;1.00;;
17504;SDS011;8870;50.950;11.762;2023-09-08T11:08:45;1.10;;;1.00;;
17504;SDS011;8870;50.950;11.762;2023-09-08T11:14:20;2.33;;;1.23;;
17504;SDS011;8870;50.950;11.762;2023-09-08T11:19:48;1.35;;;1.10;;
17504;SDS011;8870;50.950;11.762;2023-09-08T11:25:20;1.63;;;1.15;;
17504;SDS011;8870;50.950;11.762;2023-09-08T11:30:38;2.17;;;1.00;;
17504;SDS011;8870;50.950;11.762;2023-09-08T11:36:13;3.72;;;1.02;;
17504;SDS011;8870;50.950;11.762;2023-09-08T11:41:34;1.05;;;0.95;;
17504;SDS011;8870;50.950;11.762;2023-09-08T11:47:06;4.00;;;1.00;;
17504;SDS011;8870;50.950;11.762;2023-09-08T11:52:27;0.90;;;0.90;;
17504;SDS011;8870;50.950;11.762;2023-09-08T11:57:59;1.88;;;0.90;;
17504;SDS011;8870;50.950;11.762;2023-09-08T12:03:19;0.98;;;0.98;;
17504;SDS011;8870;50.950;11.762;2023-09-08T12:08:52;0.90;;;0.90;;
17504;SDS011;8870;50.950;11.762;2023-09-08T12:14:11;1.00;;;0.90;;
17504;SDS011;8870;50.950;11.762;2023-09-08T12:19:44;2.05;;;0.90;;
17504;SDS011;8870;50.950;11.762;2023-09-08T12:25:18;1.20;;;0.90;;
17504;SDS011;8870;50.950;11.762;2023-09-08T12:30:37;1.00;;;0.90;;
17504;SDS011;8870;50.950;11.762;2023-09-08T12:36:12;1.30;;;0.90;;
17504;SDS011;8870;50.950;11.762;2023-09-08T12:41:33;3.28;;;1.00;;
17504;SDS011;8870;50.950;11.762;2023-09-08T12:47:08;1.42;;;1.00;;
17504;SDS011;8870;50.950;11.762;2023-09-08T12:52:28;1.83;;;0.98;;
17504;SDS011;8870;50.950;11.762;2023-09-08T12:58:01;2.45;;;0.90;;
17504;SDS011;8870;50.950;11.762;2023-09-08T13:03:20;2.75;;;0.85;;
17504;SDS011;8870;50.950;11.762;2023-09-08T13:08:51;2.00;;;0.80;;
17504;SDS011;8870;50.950;11.762;2023-09-08T13:14:12;1.15;;;0.90;;
17504;SDS011;8870;50.950;11.762;2023-09-08T13:19:45;1.58;;;0.90;;
17504;SDS011;8870;50.950;11.762;2023-09-08T13:25:17;2.53;;;0.80;;
17504;SDS011;8870;50.950;11.762;2023-09-08T13:30:37;0.80;;;0.80;;
17504;SDS011;8870;50.950;11.762;2023-09-08T13:36:09;1.92;;;0.80;;
17504;SDS011;8870;50.950;11.762;2023-09-08T13:41:43;2.47;;;0.90;;
17504;SDS011;8870;50.950;11.762;2023-09-08T13:47:19;2.80;;;0.90;;
17504;SDS011;8870;50.950;11.762;2023-09-08T13:52:39;1.05;;;0.70;;
17504;SDS011;8870;50.950;11.762;2023-09-08T13:58:13;1.15;;;0.70;;
17504;SDS011;8870;50.950;11.762;2023-09-08T14:03:53;0.80;;;0.80;;
17504;SDS011;8870;50.950;11.762;2023-09-08T14:09:32;2.25;;;0.70;;
17504;SDS011;8870;50.950;11.762;2023-09-08T14:15:03;1.10;;;0.80;;
17504;SDS011;8870;50.950;11.762;2023-09-08T14:20:41;2.15;;;0.82;;
17504;SDS011;8870;50.950;11.762;2023-09-08T14:26:12;1.85;;;0.77;;
17504;SDS011;8870;50.950;11.762;2023-09-08T14:31:31;1.63;;;0.80;;
17504;SDS011;8870;50.950;11.762;2023-09-08T14:37:05;2.72;;;0.80;;
17504;SDS011;8870;50.950;11.762;2023-09-08T14:42:24;3.30;;;0.90;;
17504;SDS011;8870;50.950;11.762;2023-09-08T14:47:55;3.13;;;1.05;;
17504;SDS011;8870;50.950;11.762;2023-09-08T14:53:16;1.77;;;0.80;;
17504;SDS011;8870;50.950;11.762;2023-09-08T14:58:51;1.90;;;0.90;;
17504;SDS011;8870;50.950;11.762;2023-09-08T15:04:09;1.25;;;0.70;;
17504;SDS011;8870;50.950;11.762;2023-09-08T15:09:42;2.45;;;0.80;;
17504;SDS011;8870;50.950;11.762;2023-09-08T15:15:01;0.70;;;0.70;;
17504;SDS011;8870;50.950;11.762;2023-09-08T15:20:32;1.92;;;0.80;;
17504;SDS011;8870;50.950;11.762;2023-09-08T15:26:06;2.95;;;0.77;;
17504;SDS011;8870;50.950;11.762;2023-09-08T15:31:25;0.88;;;0.70;;
17504;SDS011;8870;50.950;11.762;2023-09-08T15:36:56;1.40;;;0.80;;
17504;SDS011;8870;50.950;11.762;2023-09-08T15:42:17;1.70;;;0.90;;
17504;SDS011;8870;50.950;11.762;2023-09-08T15:47:48;3.00;;;0.80;;
17504;SDS011;8870;50.950;11.762;2023-09-08T15:53:06;2.22;;;0.70;;
17504;SDS011;8870;50.950;11.762;2023-09-08T15:58:39;1.70;;;0.75;;
17504;SDS011;8870;50.950;11.762;2023-09-08T16:03:58;2.47;;;0.80;;
17504;SDS011;8870;50.950;11.762;2023-09-08T16:09:31;1.00;;;0.70;;
17504;SDS011;8870;50.950;11.762;2023-09-08T16:14:52;2.08;;;0.90;;
17504;SDS011;8870;50.950;11.762;2023-09-08T16:20:24;3.30;;;0.80;;
17504;SDS011;8870;50.950;11.762;2023-09-08T16:25:56;2.83;;;0.80;;
17504;SDS011;8870;50.950;11.762;2023-09-08T16:31:17;1.25;;;1.00;;
17504;SDS011;8870;50.950;11.762;2023-09-08T16:36:48;2.45;;;0.82;;
17504;SDS011;8870;50.950;11.762;2023-09-08T16:42:06;2.67;;;0.80;;
17504;SDS011;8870;50.950;11.762;2023-09-08T16:47:42;3.45;;;0.80;;
17504;SDS011;8870;50.950;11.762;2023-09-08T16:53:00;4.80;;;0.95;;
17504;SDS011;8870;50.950;11.762;2023-09-08T16:58:32;3.45;;;1.10;;
17504;SDS011;8870;50.950;11.762;2023-09-08T17:03:53;1.45;;;0.90;;
17504;SDS011;8870;50.950;11.762;2023-09-08T17:09:25;2.45;;;1.00;;
17504;SDS011;8870;50.950;11.762;2023-09-08T17:14:43;4.90;;;0.98;;
17504;SDS011;8870;50.950;11.762;2023-09-08T17:20:19;2.47;;;0.93;;
17504;SDS011;8870;50.950;11.762;2023-09-08T17:25:52;13.60;;;1.27;;
17504;SDS011;8870;50.950;11.762;2023-09-08T17:31:10;3.42;;;1.08;;
17504;SDS011;8870;50.950;11.762;2023-09-08T17:36:43;1.52;;;0.90;;
17504;SDS011;8870;50.950;11.762;2023-09-08T17:42:02;2.78;;;1.10;;
17504;SDS011;8870;50.950;11.762;2023-09-08T17:47:34;1.52;;;1.10;;
17504;SDS011;8870;50.950;11.762;2023-09-08T17:52:55;3.83;;;1.02;;
17504;SDS011;8870;50.950;11.762;2023-09-08T17:58:27;5.55;;;1.35;;
17504;SDS011;8870;50.950;11.762;2023-09-08T18:03:45;2.88;;;1.20;;
17504;SDS011;8870;50.950;11.762;2023-09-08T18:09:21;6.60;;;1.10;;
17504;SDS011;8870;50.950;11.762;2023-09-08T18:14:39;5.55;;;1.20;;
17504;SDS011;8870;50.950;11.762;2023-09-08T18:20:11;1.58;;;1.13;;
17504;SDS011;8870;50.950;11.762;2023-09-08T18:25:46;1.70;;;1.25;;
17504;SDS011;8870;50.950;11.762;2023-09-08T18:31:04;3.60;;;1.20;;
17504;SDS011;8870;50.950;11.762;2023-09-08T18:36:36;5.22;;;1.30;;
17504;SDS011;8870;50.950;11.762;2023-09-08T18:41:57;3.30;;;1.30;;
17504;SDS011;8870;50.950;11.762;2023-09-08T18:47:28;3.60;;;1.13;;
17504;SDS011;8870;50.950;11.762;2023-09-08T18:52:46;3.33;;;1.13;;
17504;SDS011;8870;50.950;11.762;2023-09-08T18:58:20;1.50;;;1.20;;
17504;SDS011;8870;50.950;11.762;2023-09-08T19:09:12;1.88;;;1.30;;
17504;SDS011;8870;50.950;11.762;2023-09-08T19:14:33;2.03;;;1.30;;
17504;SDS011;8870;50.950;11.762;2023-09-08T19:20:05;2.65;;;1.30;;
17504;SDS011;8870;50.950;11.762;2023-09-08T19:25:37;4.20;;;1.10;;
17504;SDS011;8870;50.950;11.762;2023-09-08T19:30:59;3.45;;;1.30;;
17504;SDS011;8870;50.950;11.762;2023-09-08T19:36:30;2.67;;;1.40;;
17504;SDS011;8870;50.950;11.762;2023-09-08T19:41:48;2.25;;;1.23;;
17504;SDS011;8870;50.950;11.762;2023-09-08T19:47:22;3.38;;;1.48;;
17504;SDS011;8870;50.950;11.762;2023-09-08T19:52:40;2.85;;;1.23;;
17504;SDS011;8870;50.950;11.762;2023-09-08T19:58:11;1.90;;;1.50;;
17504;SDS011;8870;50.950;11.762;2023-09-08T20:03:32;1.55;;;1.30;;
17504;SDS011;8870;50.950;11.762;2023-09-08T20:09:04;2.13;;;1.30;;
17504;SDS011;8870;50.950;11.762;2023-09-08T20:14:26;2.75;;;1.45;;
17504;SDS011;8870;50.950;11.762;2023-09-08T20:20:00;2.58;;;1.38;;
17504;SDS011;8870;50.950;11.762;2023-09-08T20:25:31;1.98;;;1.30;;
17504;SDS011;8870;50.950;11.762;2023-09-08T20:30:49;2.42;;;1.48;;
17504;SDS011;8870;50.950;11.762;2023-09-08T20:36:34;3.63;;;1.42;;
17504;SDS011;8870;50.950;11.762;2023-09-08T20:41:52;2.65;;;1.42;;
17504;SDS011;8870;50.950;11.762;2023-09-08T20:47:23;2.38;;;1.50;;
17504;SDS011;8870;50.950;11.762;2023-09-08T20:52:44;1.60;;;1.27;;
17504;SDS011;8870;50.950;11.762;2023-09-08T20:58:15;1.98;;;1.35;;
17504;SDS011;8870;50.950;11.762;2023-09-08T21:03:34;3.20;;;1.40;;
17504;SDS011;8870;50.950;11.762;2023-09-08T21:09:10;1.80;;;1.30;;
17504;SDS011;8870;50.950;11.762;2023-09-08T21:14:42;2.30;;;1.30;;
17504;SDS011;8870;50.950;11.762;2023-09-08T21:20:00;1.63;;;1.38;;
17504;SDS011;8870;50.950;11.762;2023-09-08T21:25:35;3.92;;;1.40;;
17504;SDS011;8870;50.950;11.762;2023-09-08T21:31:02;2.22;;;1.40;;
17504;SDS011;8870;50.950;11.762;2023-09-08T21:36:33;4.40;;;1.40;;
17504;SDS011;8870;50.950;11.762;2023-09-08T21:41:55;1.52;;;1.40;;
17504;SDS011;8870;50.950;11.762;2023-09-08T21:47:26;3.47;;;1.40;;
17504;SDS011;8870;50.950;11.762;2023-09-08T21:52:45;1.90;;;1.60;;
17504;SDS011;8870;50.950;11.762;2023-09-08T21:58:19;1.60;;;1.50;;
17504;SDS011;8870;50.950;11.762;2023-09-08T22:03:37;2.92;;;1.55;;
17504;SDS011;8870;50.950;11.762;2023-09-08T22:09:08;4.85;;;1.40;;
17504;SDS011;8870;50.950;11.762;2023-09-08T22:14:29;2.03;;;1.50;;
17504;SDS011;8870;50.950;11.762;2023-09-08T22:20:00;2.03;;;1.50;;
17504;SDS011;8870;50.950;11.762;2023-09-08T22:25:35;3.00;;;1.48;;
17504;SDS011;8870;50.950;11.762;2023-09-08T22:30:56;1.63;;;1.52;;
17504;SDS011;8870;50.950;11.762;2023-09-08T22:36:28;4.75;;;1.77;;
17504;SDS011;8870;50.950;11.762;2023-09-08T22:41:46;2.83;;;1.40;;
17504;SDS011;8870;50.950;11.762;2023-09-08T22:47:20;1.98;;;1.60;;
17504;SDS011;8870;50.950;11.762;2023-09-08T22:52:39;3.22;;;1.58;;
17504;SDS011;8870;50.950;11.762;2023-09-08T22:58:12;2.20;;;1.58;;
17504;SDS011;8870;50.950;11.762;2023-09-08T23:03:33;3.20;;;1.50;;
17504;SDS011;8870;50.950;11.762;2023-09-08T23:09:04;1.60;;;1.50;;
17504;SDS011;8870;50.950;11.762;2023-09-08T23:14:22;2.03;;;1.50;;
17504;SDS011;8870;50.950;11.762;2023-09-08T23:20:10;1.50;;;1.40;;
17504;SDS011;8870;50.950;11.762;2023-09-08T23:25:42;1.85;;;1.60;;
17504;SDS011;8870;50.950;11.762;2023-09-08T23:31:01;4.07;;;1.50;;
17504;SDS011;8870;50.950;11.762;2023-09-08T23:36:35;2.78;;;1.42;;
17504;SDS011;8870;50.950;11.762;2023-09-08T23:41:53;3.40;;;1.73;;
17504;SDS011;8870;50.950;11.762;2023-09-08T23:47:24;1.77;;;1.50;;
17504;SDS011;8870;50.950;11.762;2023-09-08T23:52:45;2.58;;;1.50;;
17504;SDS011;8870;50.950;11.762;2023-09-08T23:58:16;1.83;;;1.58;;
